Time;durP1;ratioP1;P1;durP2;ratioP2;P2;SDS_P1;SDS_P2;PMS_P1;PMS_P2;Temp;Humidity;BMP_temperature;BMP_pressure;BME280_temperature;BME280_humidity;BME280_pressure;Samples;Min_cycle;Max_cycle;Signal;HPM_P1;HPM_P2
2021/08/12 00:01:21;;;;;;;9.57;7.23;;;17.30;99.90;;;;;;5123812;28;20194;-87
2021/08/12 00:03:47;;;;;;;9.80;7.20;;;17.30;99.90;;;;;;5138290;28;20206;-87
2021/08/12 00:06:13;;;;;;;8.03;6.77;;;17.30;99.90;;;;;;5136291;28;20196;-85
2021/08/12 00:08:39;;;;;;;11.30;6.37;;;17.30;99.90;;;;;;5120125;28;20640;-88
2021/08/12 00:11:05;;;;;;;8.30;6.70;;;17.30;99.90;;;;;;5117908;28;20260;-88
2021/08/12 00:13:31;;;;;;;7.67;6.53;;;17.30;99.90;;;;;;5121788;28;20194;-88
2021/08/12 00:15:59;;;;;;;9.13;7.40;;;17.20;99.90;;;;;;5123248;28;20203;-85
2021/08/12 00:18:26;;;;;;;11.90;7.00;;;17.20;99.90;;;;;;5125244;28;20180;-85
2021/08/12 00:20:51;;;;;;;11.33;7.20;;;17.10;99.90;;;;;;5124455;28;20175;-85
2021/08/12 00:23:17;;;;;;;10.50;7.03;;;17.10;99.90;;;;;;5124726;28;20248;-85
2021/08/12 00:25:43;;;;;;;7.87;6.67;;;17.10;99.90;;;;;;5125274;28;20197;-85
2021/08/12 00:28:08;;;;;;;9.77;7.80;;;17.10;99.90;;;;;;5122655;28;20225;-88
2021/08/12 00:30:34;;;;;;;9.47;7.07;;;17.10;99.90;;;;;;5123478;28;20188;-88
2021/08/12 00:33:00;;;;;;;7.83;7.03;;;17.00;99.90;;;;;;5122633;28;20183;-88
2021/08/12 00:35:25;;;;;;;8.93;6.83;;;16.90;99.90;;;;;;5126298;28;20282;-85
2021/08/12 00:37:51;;;;;;;11.17;8.17;;;16.90;99.90;;;;;;5125480;28;20184;-85
2021/08/12 00:40:20;;;;;;;10.50;7.33;;;16.90;99.90;;;;;;5126109;28;20210;-85
2021/08/12 00:42:45;;;;;;;8.17;7.10;;;16.80;99.90;;;;;;5125145;28;20204;-85
2021/08/12 00:45:11;;;;;;;9.53;7.00;;;16.80;99.90;;;;;;5125113;28;20270;-85
2021/08/12 00:47:37;;;;;;;8.43;7.40;;;16.80;99.90;;;;;;5126074;28;20176;-88
2021/08/12 00:50:03;;;;;;;10.03;7.30;;;16.80;99.90;;;;;;5124645;28;20182;-88
2021/08/12 00:52:31;;;;;;;8.83;7.50;;;16.70;99.90;;;;;;5124031;28;20656;-88
2021/08/12 00:54:58;;;;;;;9.63;7.77;;;16.70;99.90;;;;;;5125477;28;20247;-88
2021/08/12 00:57:24;;;;;;;8.67;7.37;;;16.70;99.90;;;;;;5136143;28;20182;-87
2021/08/12 00:59:50;;;;;;;12.50;7.27;;;16.70;99.90;;;;;;5138092;28;20180;-86
2021/08/12 01:02:18;;;;;;;9.13;6.83;;;16.70;99.90;;;;;;5136778;28;20209;-85
2021/08/12 01:04:46;;;;;;;10.87;6.63;;;16.70;99.90;;;;;;5125081;28;20187;-85
2021/08/12 01:07:33;;;;;;;9.73;7.23;;;16.60;99.90;;;;;;5126251;28;20301;-85
2021/08/12 01:10:21;;;;;;;11.80;6.90;;;16.70;99.90;;;;;;5125944;28;20659;-85
2021/08/12 01:12:59;;;;;;;12.23;7.80;;;16.70;99.90;;;;;;5126613;28;20175;-86
2021/08/12 01:15:31;;;;;;;7.83;7.03;;;16.60;99.90;;;;;;5126085;28;20206;-86
2021/08/12 01:18:27;;;;;;;9.30;6.73;;;16.70;99.90;;;;;;5125566;28;20196;-86
2021/08/12 01:21:18;;;;;;;9.23;7.53;;;16.60;99.90;;;;;;5126707;28;20176;-86
2021/08/12 01:23:45;;;;;;;8.27;7.13;;;16.60;99.90;;;;;;5126197;28;20562;-86
2021/08/12 01:26:14;;;;;;;11.57;7.00;;;16.60;99.90;;;;;;5126311;28;20202;-85
2021/08/12 01:28:44;;;;;;;15.50;7.63;;;16.50;99.90;;;;;;5128271;28;20171;-86
2021/08/12 01:31:13;;;;;;;8.13;7.23;;;16.50;99.90;;;;;;5126947;28;20235;-88
2021/08/12 01:33:58;;;;;;;9.20;7.73;;;16.50;99.90;;;;;;5126936;28;20176;-86
2021/08/12 01:36:25;;;;;;;8.27;7.37;;;16.40;99.90;;;;;;5127908;28;20203;-85
2021/08/12 01:38:53;;;;;;;10.93;8.50;;;16.50;99.90;;;;;;5134558;28;20191;-85
2021/08/12 01:41:21;;;;;;;9.80;7.87;;;16.40;99.90;;;;;;5137694;28;20172;-85
2021/08/12 01:43:46;;;;;;;9.07;7.63;;;16.40;99.90;;;;;;5138007;28;20200;-85
2021/08/12 01:46:12;;;;;;;12.60;8.60;;;16.40;99.90;;;;;;5129451;28;20362;-85
2021/08/12 01:48:39;;;;;;;13.67;8.20;;;16.30;99.90;;;;;;5123030;28;20201;-85
2021/08/12 01:51:05;;;;;;;10.80;7.40;;;16.30;99.90;;;;;;5124631;27;20172;-85
2021/08/12 01:53:32;;;;;;;13.20;8.00;;;16.30;99.90;;;;;;5123340;28;20179;-85
2021/08/12 01:55:59;;;;;;;8.30;7.27;;;16.30;99.90;;;;;;5123396;28;20199;-85
2021/08/12 01:58:26;;;;;;;9.20;7.67;;;16.30;99.90;;;;;;5124376;28;20187;-85
2021/08/12 02:00:54;;;;;;;12.33;7.00;;;16.30;99.90;;;;;;5122266;28;20739;-85
2021/08/12 02:03:21;;;;;;;8.13;7.33;;;16.30;99.90;;;;;;5122445;28;20232;-86
2021/08/12 02:05:48;;;;;;;9.40;8.20;;;16.30;99.90;;;;;;5122192;28;20198;-85
2021/08/12 02:08:17;;;;;;;12.80;7.50;;;16.30;99.90;;;;;;5121899;28;20172;-85
2021/08/12 02:10:43;;;;;;;10.00;7.17;;;16.30;99.90;;;;;;5123244;28;20625;-85
2021/08/12 02:13:11;;;;;;;11.00;7.80;;;16.30;99.90;;;;;;5119401;28;20270;-85
2021/08/12 02:15:38;;;;;;;9.63;7.60;;;16.30;99.90;;;;;;5118510;28;20632;-85
2021/08/12 02:18:06;;;;;;;9.70;7.43;;;16.20;99.90;;;;;;5120319;28;20175;-85
2021/08/12 02:20:33;;;;;;;10.57;8.20;;;16.20;99.90;;;;;;5118484;28;20184;-85
2021/08/12 02:23:04;;;;;;;10.77;8.00;;;16.20;99.90;;;;;;5118049;28;20203;-85
2021/08/12 02:25:39;;;;;;;11.50;7.57;;;16.20;99.90;;;;;;5125670;28;20204;-85
2021/08/12 02:28:09;;;;;;;10.60;7.70;;;16.10;99.90;;;;;;5140608;28;20240;-82
2021/08/12 02:30:39;;;;;;;10.53;7.23;;;16.10;99.90;;;;;;5139830;28;20159;-85
2021/08/12 02:33:08;;;;;;;11.27;7.63;;;16.00;99.90;;;;;;5123192;28;20172;-85
2021/08/12 02:35:37;;;;;;;12.60;7.70;;;16.00;99.90;;;;;;5122211;28;20229;-85
2021/08/12 02:38:04;;;;;;;9.07;7.47;;;15.90;99.90;;;;;;5122542;28;20188;-86
2021/08/12 02:40:30;;;;;;;10.67;7.50;;;16.00;99.90;;;;;;5122413;28;20190;-85
2021/08/12 02:42:56;;;;;;;7.90;7.00;;;16.00;99.90;;;;;;5121946;28;20244;-86
2021/08/12 02:45:25;;;;;;;10.00;7.17;;;15.90;99.90;;;;;;5119841;28;20340;-87
2021/08/12 02:47:55;;;;;;;10.33;7.70;;;15.90;99.90;;;;;;5120847;28;20176;-86
2021/08/12 02:50:21;;;;;;;8.20;7.37;;;15.80;99.90;;;;;;5123515;28;20182;-85
2021/08/12 02:52:47;;;;;;;11.90;7.57;;;15.80;99.90;;;;;;5121158;28;20270;-85
2021/08/12 02:55:15;;;;;;;8.40;7.03;;;15.80;99.90;;;;;;5121415;28;20238;-88
2021/08/12 02:57:41;;;;;;;8.27;7.37;;;15.80;99.90;;;;;;5123282;28;20195;-86
2021/08/12 03:00:07;;;;;;;9.47;7.87;;;15.70;99.90;;;;;;5122753;28;20179;-86
2021/08/12 03:02:34;;;;;;;9.57;7.50;;;15.70;99.90;;;;;;5120933;28;20180;-86
2021/08/12 03:05:01;;;;;;;10.37;7.97;;;15.70;99.90;;;;;;5122043;28;20199;-85
2021/08/12 03:07:28;;;;;;;9.50;7.37;;;15.60;99.90;;;;;;5123240;28;20172;-85
2021/08/12 03:09:54;;;;;;;7.60;6.80;;;15.60;99.90;;;;;;5123419;28;20181;-85
2021/08/12 03:12:21;;;;;;;10.60;7.37;;;15.60;99.90;;;;;;5121251;28;20615;-85
2021/08/12 03:14:49;;;;;;;8.57;7.67;;;15.50;99.90;;;;;;5123593;28;20179;-85
2021/08/12 03:17:16;;;;;;;9.80;6.53;;;15.60;99.90;;;;;;5121629;28;20199;-85
2021/08/12 03:19:44;;;;;;;7.93;6.67;;;15.60;99.90;;;;;;5121891;28;20175;-85
2021/08/12 03:22:13;;;;;;;9.63;7.10;;;15.60;99.90;;;;;;5121245;28;20200;-86
2021/08/12 03:24:45;;;;;;;9.17;7.83;;;15.60;99.90;;;;;;5121873;28;20203;-86
2021/08/12 03:27:12;;;;;;;11.07;7.87;;;15.60;99.90;;;;;;5122391;28;20206;-86
2021/08/12 03:29:40;;;;;;;10.77;7.90;;;15.60;99.90;;;;;;5122097;28;20210;-86
2021/08/12 03:32:06;;;;;;;8.70;7.20;;;15.60;99.90;;;;;;5122864;28;20179;-85
2021/08/12 03:34:32;;;;;;;9.87;7.27;;;15.60;99.90;;;;;;5122671;28;20521;-86
2021/08/12 03:36:58;;;;;;;12.33;7.47;;;15.60;99.90;;;;;;5123582;28;20187;-85
2021/08/12 03:39:24;;;;;;;13.27;7.60;;;15.50;99.90;;;;;;5122444;28;20637;-86
2021/08/12 03:41:50;;;;;;;10.93;7.67;;;15.50;99.90;;;;;;5122736;28;20186;-86
2021/08/12 03:44:17;;;;;;;9.70;7.50;;;15.50;99.90;;;;;;5122118;28;20314;-85
2021/08/12 03:46:42;;;;;;;10.53;7.73;;;15.40;99.90;;;;;;5123617;28;20199;-87
2021/08/12 03:49:08;;;;;;;9.90;7.37;;;15.50;99.90;;;;;;5127905;28;20632;-87
2021/08/12 03:51:34;;;;;;;8.47;7.00;;;15.40;99.90;;;;;;5128269;28;20171;-88
2021/08/12 03:54:00;;;;;;;11.10;7.60;;;15.50;99.90;;;;;;5127056;28;20628;-87
2021/08/12 03:56:26;;;;;;;11.00;8.47;;;15.50;99.90;;;;;;5129824;28;20274;-87
2021/08/12 03:58:52;;;;;;;9.00;7.70;;;15.40;99.90;;;;;;5131847;28;20534;-88
2021/08/12 04:01:18;;;;;;;10.53;7.30;;;15.40;99.90;;;;;;5134027;28;20235;-87
2021/08/12 04:03:44;;;;;;;11.10;7.23;;;15.40;99.90;;;;;;5137883;28;20199;-87
2021/08/12 04:06:10;;;;;;;12.33;7.57;;;15.50;99.90;;;;;;5134609;28;20189;-87
2021/08/12 04:08:36;;;;;;;9.30;7.70;;;15.50;99.90;;;;;;5131773;28;20199;-88
2021/08/12 04:11:03;;;;;;;7.97;7.17;;;15.40;99.90;;;;;;5132860;28;20168;-88
2021/08/12 04:13:28;;;;;;;8.97;7.63;;;15.40;99.90;;;;;;5138299;28;20167;-87
2021/08/12 04:15:57;;;;;;;12.20;8.00;;;15.40;99.90;;;;;;5139584;28;20200;-87
2021/08/12 04:18:23;;;;;;;9.60;7.47;;;15.40;99.90;;;;;;5138536;28;20182;-87
2021/08/12 04:20:49;;;;;;;11.87;7.63;;;15.40;99.90;;;;;;5127411;28;20548;-87
2021/08/12 04:23:18;;;;;;;9.73;7.33;;;15.40;99.90;;;;;;5126850;28;20665;-87
2021/08/12 04:25:45;;;;;;;10.00;7.73;;;15.40;99.90;;;;;;5124560;28;20195;-86
2021/08/12 04:28:11;;;;;;;14.23;8.27;;;15.40;99.90;;;;;;5125225;28;20645;-86
2021/08/12 04:30:37;;;;;;;11.13;8.13;;;15.40;99.90;;;;;;5124110;28;20179;-86
2021/08/12 04:33:02;;;;;;;8.23;7.43;;;15.40;99.90;;;;;;5124335;28;20182;-86
2021/08/12 04:35:28;;;;;;;9.60;7.57;;;15.50;99.90;;;;;;5122862;28;20266;-87
2021/08/12 04:37:54;;;;;;;9.43;8.30;;;15.40;99.90;;;;;;5121713;28;20186;-86
2021/08/12 04:40:21;;;;;;;9.40;7.17;;;15.40;99.90;;;;;;5122152;28;20175;-86
2021/08/12 04:42:48;;;;;;;8.63;7.63;;;15.40;99.90;;;;;;5122102;28;20211;-86
2021/08/12 04:45:15;;;;;;;10.17;7.63;;;15.40;99.90;;;;;;5122242;28;20830;-86
2021/08/12 04:47:41;;;;;;;12.57;7.43;;;15.40;99.90;;;;;;5121907;28;20531;-86
2021/08/12 04:50:08;;;;;;;9.80;7.77;;;15.40;99.90;;;;;;5121531;28;20180;-86
2021/08/12 04:52:34;;;;;;;8.73;7.03;;;15.40;99.90;;;;;;5120856;28;20180;-86
2021/08/12 04:55:00;;;;;;;9.80;7.70;;;15.40;99.90;;;;;;5121179;28;20254;-86
2021/08/12 04:57:26;;;;;;;10.43;7.70;;;15.40;99.90;;;;;;5125883;28;20261;-86
2021/08/12 04:59:52;;;;;;;9.40;7.33;;;15.40;99.90;;;;;;5136581;28;20179;-86
2021/08/12 05:02:18;;;;;;;11.73;7.43;;;15.50;99.90;;;;;;5141934;28;20247;-86
2021/08/12 05:04:43;;;;;;;9.33;7.50;;;15.50;99.90;;;;;;5131489;27;20306;-87
2021/08/12 05:07:09;;;;;;;12.80;7.03;;;15.50;99.90;;;;;;5123312;28;20242;-87
2021/08/12 05:09:35;;;;;;;9.87;7.23;;;15.60;99.90;;;;;;5123206;28;20176;-86
2021/08/12 05:12:01;;;;;;;9.07;7.70;;;15.60;99.90;;;;;;5123379;28;20234;-86
2021/08/12 05:14:27;;;;;;;9.43;7.60;;;15.60;99.90;;;;;;5123655;28;20637;-87
2021/08/12 05:16:53;;;;;;;9.30;7.10;;;15.60;99.90;;;;;;5125619;28;20237;-86
2021/08/12 05:19:18;;;;;;;10.13;7.20;;;15.60;99.90;;;;;;5125929;28;20201;-86
2021/08/12 05:21:44;;;;;;;9.70;8.30;;;15.70;99.90;;;;;;5125871;28;20175;-86
2021/08/12 05:24:10;;;;;;;9.77;7.20;;;15.80;99.90;;;;;;5126061;28;20211;-86
2021/08/12 05:26:36;;;;;;;9.83;7.40;;;15.80;99.90;;;;;;5125354;28;20195;-86
2021/08/12 05:29:01;;;;;;;10.80;7.40;;;15.80;99.90;;;;;;5125759;28;20171;-87
2021/08/12 05:31:27;;;;;;;9.37;6.93;;;15.90;99.90;;;;;;5125401;28;20183;-86
2021/08/12 05:33:53;;;;;;;7.90;7.00;;;16.00;99.90;;;;;;5125095;28;20210;-87
2021/08/12 05:36:19;;;;;;;9.73;7.63;;;16.00;99.90;;;;;;5125898;28;20200;-87
2021/08/12 05:38:44;;;;;;;8.90;6.73;;;16.10;99.90;;;;;;5130309;28;20190;-86
2021/08/12 05:41:10;;;;;;;12.73;6.90;;;16.10;99.90;;;;;;5126935;28;20180;-87
2021/08/12 05:43:36;;;;;;;7.73;6.67;;;16.20;99.90;;;;;;5124825;28;20207;-87
2021/08/12 05:46:02;;;;;;;10.60;6.60;;;16.30;99.90;;;;;;5125150;28;20295;-86
2021/08/12 05:48:27;;;;;;;8.70;6.93;;;16.30;99.90;;;;;;5125735;28;20189;-87
2021/08/12 05:50:53;;;;;;;9.70;7.10;;;16.40;99.90;;;;;;5125384;28;20207;-87
2021/08/12 05:53:20;;;;;;;10.63;6.37;;;16.40;99.90;;;;;;5125038;28;20179;-87
2021/08/12 05:55:46;;;;;;;8.53;6.67;;;16.50;99.90;;;;;;5124997;28;20199;-87
2021/08/12 05:58:12;;;;;;;11.53;8.30;;;16.50;99.90;;;;;;5125631;28;20177;-87
2021/08/12 06:00:38;;;;;;;8.83;7.27;;;16.60;99.90;;;;;;5126388;28;20204;-87
2021/08/12 06:03:09;;;;;;;8.47;6.57;;;16.60;99.90;;;;;;5127995;28;20651;-87
2021/08/12 06:05:35;;;;;;;9.23;6.70;;;16.70;99.90;;;;;;5134410;28;20200;-87
2021/08/12 06:08:05;;;;;;;14.10;6.57;;;16.80;99.90;;;;;;5138737;28;20170;-86
2021/08/12 06:10:32;;;;;;;11.23;6.63;;;16.80;99.90;;;;;;5137492;28;20180;-87
2021/08/12 06:12:58;;;;;;;7.70;6.83;;;16.90;99.90;;;;;;5127207;28;20185;-87
2021/08/12 06:15:25;;;;;;;10.13;6.40;;;16.90;99.90;;;;;;5119670;28;20199;-87
2021/08/12 06:17:51;;;;;;;9.30;6.60;;;17.00;99.90;;;;;;5119101;28;20238;-87
2021/08/12 06:20:18;;;;;;;8.53;6.40;;;17.10;99.90;;;;;;5118691;28;20181;-87
2021/08/12 06:22:49;;;;;;;9.77;6.07;;;17.20;99.90;;;;;;5118492;28;20230;-87
2021/08/12 06:25:15;;;;;;;9.43;6.77;;;17.30;99.90;;;;;;5118709;28;20202;-87
2021/08/12 06:27:41;;;;;;;9.70;5.67;;;17.30;99.90;;;;;;5119336;28;20250;-87
2021/08/12 06:30:09;;;;;;;8.27;6.60;;;17.40;99.90;;;;;;5118275;28;20184;-87
2021/08/12 06:32:35;;;;;;;8.13;5.77;;;17.50;99.90;;;;;;5118595;28;20199;-87
2021/08/12 06:35:01;;;;;;;7.37;5.93;;;17.60;99.90;;;;;;5118237;28;20705;-87
2021/08/12 06:37:30;;;;;;;6.57;5.87;;;17.70;99.90;;;;;;5117348;28;20229;-87
2021/08/12 06:39:56;;;;;;;8.03;6.27;;;17.80;99.90;;;;;;5117559;28;20185;-87
2021/08/12 06:42:22;;;;;;;9.30;6.13;;;17.90;99.90;;;;;;5116932;28;20190;-87
2021/08/12 06:44:48;;;;;;;12.77;6.03;;;18.00;99.90;;;;;;5117027;28;20209;-87
2021/08/12 06:47:14;;;;;;;8.63;6.10;;;18.10;99.90;;;;;;5118387;28;20654;-87
2021/08/12 06:49:39;;;;;;;6.80;6.00;;;18.20;99.90;;;;;;5118050;28;20169;-87
2021/08/12 06:52:05;;;;;;;8.33;6.33;;;18.20;99.90;;;;;;5118362;28;20274;-87
2021/08/12 06:54:31;;;;;;;6.67;5.97;;;18.30;99.90;;;;;;5117020;28;20669;-87
2021/08/12 06:56:57;;;;;;;6.13;5.40;;;18.50;99.90;;;;;;5118320;28;20681;-87
2021/08/12 06:59:23;;;;;;;8.20;6.27;;;18.60;99.90;;;;;;5116673;28;20178;-86
2021/08/12 07:01:48;;;;;;;8.27;6.10;;;18.80;99.90;;;;;;5116829;28;20598;-86
2021/08/12 07:04:14;;;;;;;8.40;5.60;;;18.90;99.90;;;;;;5116670;28;20210;-86
2021/08/12 07:06:40;;;;;;;8.53;5.80;;;19.00;99.90;;;;;;5116872;28;20234;-86
2021/08/12 07:09:06;;;;;;;7.43;5.53;;;19.10;99.90;;;;;;5117024;28;20183;-86
2021/08/12 07:11:31;;;;;;;9.60;5.63;;;19.30;99.90;;;;;;5116839;28;20255;-87
2021/08/12 07:13:57;;;;;;;7.27;6.00;;;19.30;99.90;;;;;;5116140;28;20174;-87
2021/08/12 07:16:23;;;;;;;7.40;6.00;;;19.40;99.90;;;;;;5117598;28;20679;-87
2021/08/12 07:18:48;;;;;;;7.80;5.87;;;19.50;99.90;;;;;;5116708;28;20214;-87
2021/08/12 07:21:19;;;;;;;8.53;5.90;;;19.60;99.90;;;;;;5115831;28;20187;-87
2021/08/12 07:23:46;;;;;;;7.87;6.80;;;19.70;99.90;;;;;;5115870;28;20206;-86
2021/08/12 07:26:14;;;;;;;7.70;6.07;;;19.80;99.90;;;;;;5122984;28;20203;-86
2021/08/12 07:28:45;;;;;;;7.57;5.83;;;20.00;99.90;;;;;;5136968;28;20172;-86
2021/08/12 07:31:13;;;;;;;6.93;5.93;;;20.10;99.90;;;;;;5139919;28;20169;-85
2021/08/12 07:33:39;;;;;;;6.40;5.47;;;20.20;99.90;;;;;;5128994;28;20250;-87
2021/08/12 07:36:05;;;;;;;7.47;5.87;;;20.40;99.90;;;;;;5116964;28;20202;-87
2021/08/12 07:38:32;;;;;;;7.13;6.07;;;20.50;99.90;;;;;;5115707;28;20195;-87
2021/08/12 07:40:58;;;;;;;7.63;6.23;;;20.70;99.90;;;;;;5116100;28;20189;-87
2021/08/12 07:43:24;;;;;;;8.17;6.07;;;20.80;99.90;;;;;;5115615;28;20205;-87
2021/08/12 07:45:50;;;;;;;7.93;5.77;;;20.90;99.90;;;;;;5116708;28;20205;-87
2021/08/12 07:48:16;;;;;;;9.47;6.27;;;21.00;99.90;;;;;;5115737;28;20204;-87
2021/08/12 07:50:42;;;;;;;6.53;5.83;;;21.20;99.90;;;;;;5117109;28;20177;-87
2021/08/12 07:53:08;;;;;;;7.70;5.70;;;21.30;99.90;;;;;;5115800;28;20214;-87
2021/08/12 07:55:33;;;;;;;7.33;6.17;;;21.30;99.90;;;;;;5115786;28;20206;-87
2021/08/12 07:57:59;;;;;;;8.37;6.50;;;21.50;99.90;;;;;;5115553;28;20187;-87
2021/08/12 08:00:25;;;;;;;7.30;6.20;;;21.60;99.90;;;;;;5115368;28;20216;-87
2021/08/12 08:02:50;;;;;;;9.30;6.73;;;21.70;99.90;;;;;;5115528;28;20568;-87
2021/08/12 08:05:21;;;;;;;14.83;7.37;;;21.80;99.90;;;;;;5117103;28;20593;-86
2021/08/12 08:07:49;;;;;;;9.13;6.30;;;22.00;99.90;;;;;;5116019;28;20179;-87
2021/08/12 08:10:16;;;;;;;8.67;6.43;;;22.00;99.90;;;;;;5116750;28;20659;-87
2021/08/12 08:12:42;;;;;;;7.97;6.17;;;22.20;99.90;;;;;;5115303;28;20179;-87
2021/08/12 08:15:09;;;;;;;10.53;6.90;;;22.40;99.90;;;;;;5116477;28;20181;-87
2021/08/12 08:17:35;;;;;;;8.63;6.40;;;22.50;99.90;;;;;;5115342;28;20176;-87
2021/08/12 08:20:01;;;;;;;6.80;5.43;;;22.70;99.90;;;;;;5117030;28;20176;-87
2021/08/12 08:22:27;;;;;;;9.07;5.90;;;22.90;99.90;;;;;;5115319;28;20184;-87
2021/08/12 08:24:52;;;;;;;8.33;6.10;;;23.10;99.90;;;;;;5116371;28;20703;-87
2021/08/12 08:27:18;;;;;;;9.40;5.83;;;23.30;99.90;;;;;;5114916;28;20681;-87
2021/08/12 08:29:44;;;;;;;7.63;5.80;;;23.30;99.90;;;;;;5116194;28;20734;-87
2021/08/12 08:32:09;;;;;;;7.07;6.00;;;23.50;99.90;;;;;;5115405;28;20207;-87
2021/08/12 08:34:35;;;;;;;11.20;6.60;;;23.70;99.90;;;;;;5119366;28;20259;-87
2021/08/12 08:37:01;;;;;;;8.00;5.97;;;;;;;;;;5120237;27;20295;-87
2021/08/12 08:39:27;;;;;;;9.10;5.73;;;24.00;99.90;;;;;;5118903;28;20195;-87
2021/08/12 08:41:53;;;;;;;7.80;5.90;;;24.20;99.90;;;;;;5119141;28;20640;-87
2021/08/12 08:44:21;;;;;;;8.73;5.90;;;24.40;99.90;;;;;;5120109;28;20210;-88
2021/08/12 08:46:47;;;;;;;11.23;6.40;;;24.50;99.90;;;;;;5118966;28;20231;-88
2021/08/12 08:49:17;;;;;;;9.57;6.03;;;24.60;99.90;;;;;;5119249;28;20206;-89
2021/08/12 08:51:43;;;;;;;8.63;6.07;;;24.70;99.90;;;;;;5119165;28;20187;-89
2021/08/12 08:54:11;;;;;;;11.33;6.60;;;24.90;99.90;;;;;;5118848;28;20188;-89
2021/08/12 08:56:40;;;;;;;9.37;5.67;;;25.00;99.90;;;;;;5118280;28;20201;-89
2021/08/12 08:59:07;;;;;;;7.43;6.10;;;25.10;99.90;;;;;;5118260;28;20182;-89
2021/08/12 09:01:35;;;;;;;9.97;6.13;;;25.40;99.90;;;;;;5118337;28;20193;-90
2021/08/12 09:04:00;;;;;;;8.23;5.83;;;25.50;99.90;;;;;;5118352;28;20655;-87
2021/08/12 09:06:26;;;;;;;8.97;6.00;;;25.60;99.90;;;;;;5118706;28;20203;-89
2021/08/12 09:08:54;;;;;;;10.47;5.73;;;25.70;99.90;;;;;;5119976;28;20195;-88
2021/08/12 09:11:21;;;;;;;6.83;5.50;;;25.90;99.90;;;;;;5118998;28;20180;-88
2021/08/12 09:13:46;;;;;;;7.07;5.93;;;26.00;99.90;;;;;;5118243;28;20184;-87
2021/08/12 09:16:33;;;;;;;7.70;5.60;;;26.20;99.90;;;;;;5118280;28;20709;-89
2021/08/12 09:19:23;;;;;;;6.73;6.00;;;26.40;99.90;;;;;;5118226;28;20662;-88
2021/08/12 09:21:51;;;;;;;8.40;5.83;;;26.60;99.90;;;;;;5118350;28;20216;-85
2021/08/12 09:24:18;;;;;;;9.13;6.50;;;26.80;99.90;;;;;;5119352;28;20218;-88
2021/08/12 09:26:43;;;;;;;8.17;6.17;;;26.80;99.90;;;;;;5120630;28;20534;-87
2021/08/12 09:29:10;;;;;;;9.43;6.37;;;26.90;99.90;;;;;;5119529;28;20171;-86
2021/08/12 09:31:55;;;;;;;8.40;6.27;;;27.10;99.90;;;;;;5119568;28;20198;-85
2021/08/12 09:34:21;;;;;;;9.93;6.83;;;27.20;99.90;;;;;;5122081;28;20197;-84
2021/08/12 09:36:47;;;;;;;6.90;6.10;;;27.30;99.90;;;;;;5122446;28;20229;-85
2021/08/12 09:39:18;;;;;;;10.23;6.03;;;27.50;99.90;;;;;;5121435;28;20658;-85
2021/08/12 09:41:54;;;;;;;8.23;6.40;;;27.60;99.90;;;;;;5120264;28;20300;-87
2021/08/12 09:44:35;;;;;;;8.07;6.07;;;27.70;99.90;;;;;;5119648;28;20207;-86
2021/08/12 09:47:11;;;;;;;7.27;5.77;;;27.80;99.90;;;;;;5120416;28;20195;-86
2021/08/12 09:49:59;;;;;;;7.97;5.57;;;27.90;99.90;;;;;;5120176;28;20176;-85
2021/08/12 09:52:27;;;;;;;10.40;6.80;;;28.00;99.90;;;;;;5129105;28;20175;-86
2021/08/12 09:55:01;;;;;;;10.67;5.20;;;28.20;99.90;;;;;;5140856;28;20164;-86
2021/08/12 09:57:41;;;;;;;9.10;5.80;;;28.20;99.90;;;;;;5134498;28;20170;-86
2021/08/12 10:00:09;;;;;;;6.63;6.03;;;28.40;99.90;;;;;;5120320;28;20259;-86
2021/08/12 10:02:35;;;;;;;7.53;6.20;;;28.40;99.90;;;;;;5120272;28;20266;-85
2021/08/12 10:05:03;;;;;;;8.97;5.70;;;28.60;99.90;;;;;;5120297;28;20195;-86
2021/08/12 10:07:38;;;;;;;7.07;5.40;;;28.70;99.90;;;;;;5120066;28;20190;-85
2021/08/12 10:10:23;;;;;;;8.67;5.90;;;28.70;99.90;;;;;;5136138;28;20231;-86
2021/08/12 10:12:57;;;;;;;9.10;5.50;;;28.40;99.90;;;;;;5138660;28;20183;-86
2021/08/12 10:15:25;;;;;;;7.70;5.50;;;28.50;99.90;;;;;;5133987;28;20199;-86
2021/08/12 10:17:54;;;;;;;6.17;5.43;;;28.70;99.90;;;;;;5118098;28;20175;-83
2021/08/12 10:20:29;;;;;;;12.23;5.67;;;28.90;99.90;;;;;;5120292;28;20170;-86
2021/08/12 10:22:57;;;;;;;6.13;5.10;;;29.10;99.90;;;;;;5119890;28;20206;-86
2021/08/12 10:25:24;;;;;;;6.67;5.27;;;29.40;99.90;;;;;;5119516;28;20192;-86
2021/08/12 10:27:56;;;;;;;9.53;5.47;;;29.50;99.90;;;;;;5121222;28;20168;-86
2021/08/12 10:30:23;;;;;;;8.17;5.37;;;29.70;99.90;;;;;;5120153;28;20164;-85
2021/08/12 10:32:49;;;;;;;6.93;5.40;;;29.50;99.90;;;;;;5127114;28;20167;-86
2021/08/12 10:35:15;;;;;;;8.03;5.60;;;29.20;99.90;;;;;;5135471;28;20176;-85
2021/08/12 10:37:40;;;;;;;7.80;5.37;;;29.00;99.90;;;;;;5130884;28;20181;-86
2021/08/12 10:40:13;;;;;;;9.83;5.13;;;29.00;99.90;;;;;;5118355;28;20631;-86
2021/08/12 10:42:44;;;;;;;8.40;5.83;;;29.20;99.90;;;;;;5117189;28;20221;-88
2021/08/12 10:45:12;;;;;;;5.87;5.07;;;29.50;99.90;;;;;;5117192;28;20164;-88
2021/08/12 10:47:42;;;;;;;6.47;5.77;;;29.70;99.90;;;;;;5117321;28;20173;-88
2021/08/12 10:50:24;;;;;;;6.63;5.10;;;29.80;99.90;;;;;;5117684;28;20173;-88
2021/08/12 10:53:09;;;;;;;10.90;6.23;;;29.90;99.90;;;;;;5116921;28;20178;-88
2021/08/12 10:55:38;;;;;;;7.50;5.50;;;30.00;99.90;;;;;;5118057;28;20187;-87
2021/08/12 10:58:29;;;;;;;7.20;5.30;;;30.10;99.90;;;;;;5116500;28;20650;-87
2021/08/12 11:01:09;;;;;;;9.13;5.40;;;30.30;99.90;;;;;;5117274;28;20200;-88
2021/08/12 11:03:43;;;;;;;7.07;5.73;;;30.40;99.90;;;;;;5117124;28;20260;-88
2021/08/12 11:06:17;;;;;;;8.17;5.80;;;30.50;99.90;;;;;;5117258;28;20285;-88
2021/08/12 11:08:48;;;;;;;9.27;5.60;;;30.30;99.90;;;;;;5117593;28;20254;-89
2021/08/12 11:11:17;;;;;;;11.03;5.70;;;30.30;99.90;;;;;;5117037;28;20604;-88
2021/08/12 11:13:43;;;;;;;8.37;5.63;;;30.30;99.90;;;;;;5117568;28;20187;-87
2021/08/12 11:16:09;;;;;;;7.03;5.03;;;;;;;;;;5116446;28;20721;-87
2021/08/12 11:18:53;;;;;;;8.40;5.47;;;30.40;99.90;;;;;;5116136;28;20182;-87
2021/08/12 11:21:31;;;;;;;6.27;5.47;;;30.60;99.90;;;;;;5115750;28;20182;-87
2021/08/12 11:24:02;;;;;;;6.30;5.70;;;30.50;99.90;;;;;;5115618;28;20246;-87
2021/08/12 11:26:44;;;;;;;6.83;5.63;;;30.50;99.90;;;;;;5116054;28;20205;-87
2021/08/12 11:29:22;;;;;;;8.43;5.47;;;30.50;99.90;;;;;;5116028;28;20218;-87
2021/08/12 11:31:48;;;;;;;8.00;5.13;;;;;;;;;;5116797;28;20168;-87
2021/08/12 11:34:36;;;;;;;7.33;5.27;;;30.80;99.90;;;;;;5117452;28;20210;-88
2021/08/12 11:37:05;;;;;;;6.80;5.73;;;31.20;99.90;;;;;;5117083;28;20206;-88
2021/08/12 11:39:32;;;;;;;5.43;4.87;;;31.10;99.90;;;;;;5116540;28;20267;-88
2021/08/12 11:41:59;;;;;;;6.53;5.63;;;31.00;99.90;;;;;;5117054;28;20239;-88
2021/08/12 11:44:25;;;;;;;10.93;5.43;;;;;;;;;;5115804;28;20213;-88
2021/08/12 11:46:51;;;;;;;8.60;5.20;;;;;;;;;;5115277;28;20625;-88
2021/08/12 11:49:18;;;;;;;6.60;5.30;;;31.00;99.90;;;;;;5117080;28;20177;-88
2021/08/12 11:51:44;;;;;;;9.50;5.77;;;;;;;;;;5115315;28;20190;-88
2021/08/12 11:54:11;;;;;;;6.00;5.30;;;31.30;99.90;;;;;;5116137;28;20182;-88
2021/08/12 11:56:38;;;;;;;8.47;4.90;;;31.50;99.90;;;;;;5116032;28;20214;-88
2021/08/12 11:59:04;;;;;;;6.70;5.10;;;;;;;;;;5116628;28;20604;-88
2021/08/12 12:01:33;;;;;;;10.97;5.47;;;31.70;99.90;;;;;;5115225;28;20204;-88
2021/08/12 12:04:01;;;;;;;5.50;5.00;;;31.70;99.90;;;;;;5115128;28;20625;-88
2021/08/12 12:06:36;;;;;;;9.33;5.53;;;31.70;99.90;;;;;;5115388;28;20205;-88
2021/08/12 12:09:24;;;;;;;7.43;4.77;;;31.70;99.90;;;;;;5127071;28;20262;-88
2021/08/12 12:12:11;;;;;;;5.90;5.30;;;31.70;99.90;;;;;;5142823;28;20210;-87
2021/08/12 12:14:43;;;;;;;9.87;4.97;;;31.90;99.90;;;;;;5128027;28;20180;-88
2021/08/12 12:17:11;;;;;;;6.93;4.77;;;31.90;99.90;;;;;;5119291;28;20192;-88
2021/08/12 12:19:57;;;;;;;6.60;4.87;;;32.10;99.90;;;;;;5119280;28;20186;-88
2021/08/12 12:22:23;;;;;;;7.40;5.90;;;32.30;99.90;;;;;;5119002;28;20243;-88
2021/08/12 12:24:49;;;;;;;12.10;5.20;;;;;;;;;;5118881;28;20208;-87
2021/08/12 12:27:20;;;;;;;5.50;5.00;;;31.70;99.90;;;;;;5119001;28;20606;-88
2021/08/12 12:29:48;;;;;;;7.13;5.00;;;31.50;99.90;;;;;;5118835;28;20236;-88
2021/08/12 12:32:14;;;;;;;5.87;4.93;;;31.60;99.90;;;;;;5118912;28;20188;-88
2021/08/12 12:34:54;;;;;;;6.73;5.67;;;31.60;99.90;;;;;;5118670;28;20179;-88
2021/08/12 12:37:22;;;;;;;6.73;5.30;;;32.40;99.90;;;;;;5118625;28;20284;-88
2021/08/12 12:39:49;;;;;;;10.77;5.60;;;32.40;99.90;;;;;;5119845;28;20178;-88
2021/08/12 12:42:15;;;;;;;7.00;5.13;;;32.70;99.90;;;;;;5118958;28;20549;-88
2021/08/12 12:45:14;;;;;;;5.77;5.07;;;32.90;99.90;;;;;;5118508;28;20681;-88
2021/08/12 12:47:39;;;;;;;10.13;5.73;;;33.20;99.90;;;;;;5084836;28;20185;-88
2021/08/12 12:50:08;;;;;;;7.13;5.27;;;33.10;99.90;;;;;;5118145;28;20180;-88
2021/08/12 12:52:35;;;;;;;6.07;4.80;;;33.00;99.90;;;;;;5118482;28;20654;-88